Circle Line Brooklyn — WDE8160 — position and weather

sailwx.info

Track history (hours):
 
Tides and Currents Weather Stations Pressure Air Temp Water Temp Dewpoint Dewpoint Depression Visibility Wind Speed Wind Dir Waves Ship Positions

Circle Line Brooklyn

Owner: Circle Line Sight Seeing Yachts Inc., New York, NY. More information available from US FCC via Universal Licensing System and Coast Guard Vessel Documentation Center.

Last reported at 2015-Aug-29 01:20 UTC. Time now 2015-Aug-29 12:44 UTC.
Position N 40°46' W 074°00'.

MMSI: 367402250.

Date/timePositionNaut miles runAvg speedWind from/ knotsBaromVisibWave heightAir tempDewpointWater temp
2015-Aug-29 01:20N 40°46' W 074°00'3 4.5
2015-Aug-29 00:34N 40°43' W 074°02'1 1.2
2015-Aug-28 23:34N 40°42' W 074°00'4 3.8
2015-Aug-28 22:32N 40°46' W 074°00'0 0.0
2015-Aug-28 21:32N 40°46' W 074°00'0 0.0
2015-Aug-28 20:32N 40°46' W 074°00'0 0.0
2015-Aug-28 19:32N 40°46' W 074°00'0 0.0
2015-Aug-28 18:32N 40°46' W 074°00'0 0.0
2015-Aug-28 17:32N 40°46' W 074°00'0 0.0
2015-Aug-28 16:32N 40°46' W 074°00'0 0.0
2015-Aug-28 15:32N 40°46' W 074°00'0 0.0
2015-Aug-28 14:32N 40°46' W 074°00'2 0.2
2015-Aug-28 00:33N 40°43' W 074°01'2 2.0
2015-Aug-27 23:33N 40°42' W 073°59'3 3.4
2015-Aug-27 22:33N 40°46' W 074°00'0 0.0
2015-Aug-27 21:33N 40°46' W 074°00'1 0.7
2015-Aug-27 20:34N 40°46' W 073°60'2 1.6
2015-Aug-27 19:08N 40°46' W 073°57'610.2
2015-Aug-27 18:34N 40°41' W 074°02'5 4.8
2015-Aug-27 17:33N 40°46' W 074°00'0 0.0
2015-Aug-27 16:33N 40°46' W 074°00'2 1.8
2015-Aug-27 15:11N 40°46' W 073°57'610.0
2015-Aug-27 14:33N 40°41' W 074°03'5 4.8
2015-Aug-27 13:32N 40°46' W 074°00'0 0.0
2015-Aug-25 20:32N 40°46' W 074°00'5 2.5
2015-Aug-25 18:33N 40°41' W 074°02'5 4.9
2015-Aug-25 17:32N 40°46' W 074°00'0 0.0
2015-Aug-25 16:32N 40°46' W 074°00'5 4.1
2015-Aug-25 15:27N 40°49' W 073°56'910.5
2015-Aug-25 14:33N 40°41' W 074°03'5 4.9
2015-Aug-25 13:33N 40°46' W 074°00'0 0.0
2015-Aug-25 01:32N 40°46' W 074°00'2 1.8
2015-Aug-25 00:33N 40°44' W 074°01'2 2.2
2015-Aug-24 23:33N 40°42' W 073°60'3 3.2
2015-Aug-24 22:29N 40°46' W 074°00'0 0.0
2015-Aug-24 21:29N 40°46' W 074°00'0 0.0
2015-Aug-24 20:32N 40°46' W 074°00'4 3.0
2015-Aug-24 19:14N 40°48' W 073°56'812.4
2015-Aug-24 18:33N 40°41' W 074°03'5 4.8
2015-Aug-24 17:31N 40°46' W 074°00'0 0.0
2015-Aug-24 16:31N 40°46' W 074°00'2 1.6
2015-Aug-24 15:09N 40°46' W 073°57'610.0
2015-Aug-24 14:33N 40°41' W 074°03'5 5.0
2015-Aug-24 13:33N 40°46' W 074°00'1 0.1
2015-Aug-24 00:33N 40°45' W 074°01'3 2.8
2015-Aug-23 23:33N 40°43' W 073°58'3 3.3
2015-Aug-23 22:33N 40°46' W 074°00'0 0.0
2015-Aug-23 21:33N 40°46' W 074°00'2 1.6
2015-Aug-23 20:33N 40°47' W 073°60'2 1.7
2015-Aug-23 19:06N 40°46' W 073°57'611.0
2015-Aug-23 18:33N 40°41' W 074°03'5 5.1
2015-Aug-23 17:33N 40°46' W 074°00'0 0.0
2015-Aug-23 16:28N 40°46' W 074°00'3 2.3
2015-Aug-23 15:11N 40°47' W 073°56'711.6
2015-Aug-23 14:33N 40°41' W 074°02'5 4.8
2015-Aug-23 13:32N 40°46' W 074°00'2 0.2
2015-Aug-23 03:33N 40°44' W 074°01'3 2.7
2015-Aug-23 02:16N 40°46' W 073°57'6 8.0
2015-Aug-23 01:33N 40°41' W 074°02'5 4.5
2015-Aug-23 00:34N 40°46' W 074°00'0 0.0
2015-Aug-22 23:31N 40°46' W 074°00'0 0.0
2015-Aug-22 22:31N 40°46' W 074°00'0 0.0
2015-Aug-22 21:28N 40°46' W 074°00'0 0.0
2015-Aug-22 20:31N 40°46' W 074°00'1 1.0
2015-Aug-22 19:34N 40°45' W 074°01'1 1.0
2015-Aug-22 18:34N 40°46' W 074°00'0 0.0
2015-Aug-22 17:33N 40°46' W 074°00'0 0.2
2015-Aug-22 16:34N 40°46' W 074°00'5 5.0
2015-Aug-22 15:34N 40°41' W 074°03'5 4.8
2015-Aug-22 14:31N 40°46' W 074°00'0 0.0
2015-Aug-21 22:13N 40°46' W 074°00'1 1.4
2015-Aug-21 21:33N 40°45' W 074°01'1 0.9
2015-Aug-21 20:33N 40°46' W 074°00'0 0.0
2015-Aug-21 19:33N 40°46' W 074°00'0 0.0
2015-Aug-21 18:34N 40°46' W 074°00'2 1.4
2015-Aug-21 17:04N 40°46' W 073°57'510.8
2015-Aug-21 16:33N 40°41' W 074°02'5 4.4
2015-Aug-21 15:32N 40°46' W 074°00'5 4.9
2015-Aug-21 14:33N 40°41' W 074°02'5 4.4
2015-Aug-21 13:28N 40°46' W 074°00'0 0.0
2015-Aug-21 01:33N 40°46' W 074°00'2 2.1
2015-Aug-21 00:33N 40°46' W 073°57'5 5.3
2015-Aug-20 23:33N 40°42' W 074°02'4 4.4
2015-Aug-20 22:34N 40°46' W 074°00'0 0.0
2015-Aug-20 21:34N 40°46' W 074°00'1 1.4
2015-Aug-20 20:34N 40°47' W 073°60'2 1.8
2015-Aug-20 19:11N 40°46' W 073°57'5 8.6
2015-Aug-20 18:33N 40°42' W 074°02'4 4.0
2015-Aug-20 17:28N 40°46' W 074°00'2 2.3
2015-Aug-20 16:34N 40°48' W 073°59'3 1.9
2015-Aug-20 15:07N 40°45' W 073°57'5 9.6
2015-Aug-20 14:33N 40°42' W 074°02'5 4.3
2015-Aug-20 13:31N 40°46' W 074°00'  
Track history (hours):
 
Tides and Currents Weather Stations Pressure Air Temp Water Temp Dewpoint Dewpoint Depression Visibility Wind Speed Wind Dir Waves Ship Positions

Circle Line Brooklyn

Owner: Circle Line Sight Seeing Yachts Inc., New York, NY. More information available from US FCC via Universal Licensing System and Coast Guard Vessel Documentation Center.

Last reported at 2015-Aug-29 01:20 UTC. Time now 2015-Aug-29 12:44 UTC.
Position N 40°46' W 074°00'.

MMSI: 367402250.

Date/timePositionNaut miles runAvg speedWind from/ knotsBaromVisibWave heightAir tempDewpointWater temp
2015-Aug-29 01:20N 40°46' W 074°00'3 4.5
2015-Aug-29 00:34N 40°43' W 074°02'1 1.2
2015-Aug-28 23:34N 40°42' W 074°00'4 3.8
2015-Aug-28 22:32N 40°46' W 074°00'0 0.0
2015-Aug-28 21:32N 40°46' W 074°00'0 0.0
2015-Aug-28 20:32N 40°46' W 074°00'0 0.0
2015-Aug-28 19:32N 40°46' W 074°00'0 0.0
2015-Aug-28 18:32N 40°46' W 074°00'0 0.0
2015-Aug-28 17:32N 40°46' W 074°00'0 0.0
2015-Aug-28 16:32N 40°46' W 074°00'0 0.0
2015-Aug-28 15:32N 40°46' W 074°00'0 0.0
2015-Aug-28 14:32N 40°46' W 074°00'2 0.2
2015-Aug-28 00:33N 40°43' W 074°01'2 2.0
2015-Aug-27 23:33N 40°42' W 073°59'3 3.4
2015-Aug-27 22:33N 40°46' W 074°00'0 0.0
2015-Aug-27 21:33N 40°46' W 074°00'1 0.7
2015-Aug-27 20:34N 40°46' W 073°60'2 1.6
2015-Aug-27 19:08N 40°46' W 073°57'610.2
2015-Aug-27 18:34N 40°41' W 074°02'5 4.8
2015-Aug-27 17:33N 40°46' W 074°00'0 0.0
2015-Aug-27 16:33N 40°46' W 074°00'2 1.8
2015-Aug-27 15:11N 40°46' W 073°57'610.0
2015-Aug-27 14:33N 40°41' W 074°03'5 4.8
2015-Aug-27 13:32N 40°46' W 074°00'0 0.0
2015-Aug-25 20:32N 40°46' W 074°00'5 2.5
2015-Aug-25 18:33N 40°41' W 074°02'5 4.9
2015-Aug-25 17:32N 40°46' W 074°00'0 0.0
2015-Aug-25 16:32N 40°46' W 074°00'5 4.1
2015-Aug-25 15:27N 40°49' W 073°56'910.5
2015-Aug-25 14:33N 40°41' W 074°03'5 4.9
2015-Aug-25 13:33N 40°46' W 074°00'0 0.0
2015-Aug-25 01:32N 40°46' W 074°00'2 1.8
2015-Aug-25 00:33N 40°44' W 074°01'2 2.2
2015-Aug-24 23:33N 40°42' W 073°60'3 3.2
2015-Aug-24 22:29N 40°46' W 074°00'0 0.0
2015-Aug-24 21:29N 40°46' W 074°00'0 0.0
2015-Aug-24 20:32N 40°46' W 074°00'4 3.0
2015-Aug-24 19:14N 40°48' W 073°56'812.4
2015-Aug-24 18:33N 40°41' W 074°03'5 4.8
2015-Aug-24 17:31N 40°46' W 074°00'0 0.0
2015-Aug-24 16:31N 40°46' W 074°00'2 1.6
2015-Aug-24 15:09N 40°46' W 073°57'610.0
2015-Aug-24 14:33N 40°41' W 074°03'5 5.0
2015-Aug-24 13:33N 40°46' W 074°00'1 0.1
2015-Aug-24 00:33N 40°45' W 074°01'3 2.8
2015-Aug-23 23:33N 40°43' W 073°58'3 3.3
2015-Aug-23 22:33N 40°46' W 074°00'0 0.0
2015-Aug-23 21:33N 40°46' W 074°00'2 1.6
2015-Aug-23 20:33N 40°47' W 073°60'2 1.7
2015-Aug-23 19:06N 40°46' W 073°57'611.0
2015-Aug-23 18:33N 40°41' W 074°03'5 5.1
2015-Aug-23 17:33N 40°46' W 074°00'0 0.0
2015-Aug-23 16:28N 40°46' W 074°00'3 2.3
2015-Aug-23 15:11N 40°47' W 073°56'711.6
2015-Aug-23 14:33N 40°41' W 074°02'5 4.8
2015-Aug-23 13:32N 40°46' W 074°00'2 0.2
2015-Aug-23 03:33N 40°44' W 074°01'3 2.7
2015-Aug-23 02:16N 40°46' W 073°57'6 8.0
2015-Aug-23 01:33N 40°41' W 074°02'5 4.5
2015-Aug-23 00:34N 40°46' W 074°00'0 0.0
2015-Aug-22 23:31N 40°46' W 074°00'0 0.0
2015-Aug-22 22:31N 40°46' W 074°00'0 0.0
2015-Aug-22 21:28N 40°46' W 074°00'0 0.0
2015-Aug-22 20:31N 40°46' W 074°00'1 1.0
2015-Aug-22 19:34N 40°45' W 074°01'1 1.0
2015-Aug-22 18:34N 40°46' W 074°00'0 0.0
2015-Aug-22 17:33N 40°46' W 074°00'0 0.2
2015-Aug-22 16:34N 40°46' W 074°00'5 5.0
2015-Aug-22 15:34N 40°41' W 074°03'5 4.8
2015-Aug-22 14:31N 40°46' W 074°00'0 0.0
2015-Aug-21 22:13N 40°46' W 074°00'1 1.4
2015-Aug-21 21:33N 40°45' W 074°01'1 0.9
2015-Aug-21 20:33N 40°46' W 074°00'0 0.0
2015-Aug-21 19:33N 40°46' W 074°00'0 0.0
2015-Aug-21 18:34N 40°46' W 074°00'2 1.4
2015-Aug-21 17:04N 40°46' W 073°57'510.8
2015-Aug-21 16:33N 40°41' W 074°02'5 4.4
2015-Aug-21 15:32N 40°46' W 074°00'5 4.9
2015-Aug-21 14:33N 40°41' W 074°02'5 4.4
2015-Aug-21 13:28N 40°46' W 074°00'0 0.0
2015-Aug-21 01:33N 40°46' W 074°00'2 2.1
2015-Aug-21 00:33N 40°46' W 073°57'5 5.3
2015-Aug-20 23:33N 40°42' W 074°02'4 4.4
2015-Aug-20 22:34N 40°46' W 074°00'0 0.0
2015-Aug-20 21:34N 40°46' W 074°00'1 1.4
2015-Aug-20 20:34N 40°47' W 073°60'2 1.8
2015-Aug-20 19:11N 40°46' W 073°57'5 8.6
2015-Aug-20 18:33N 40°42' W 074°02'4 4.0
2015-Aug-20 17:28N 40°46' W 074°00'2 2.3
2015-Aug-20 16:34N 40°48' W 073°59'3 1.9
2015-Aug-20 15:07N 40°45' W 073°57'5 9.6
2015-Aug-20 14:33N 40°42' W 074°02'5 4.3
2015-Aug-20 13:31N 40°46' W 074°00'  

Dump ship's entire track history